Accord, New York
Current Conditions -  °F | °C
As of 4:54 AM on Sunday 26 Oct 2014 (Local Time) from KMGJ Reporting Station
Clear Clear  
Wind Chill: 43°   Ceiling: Unl
Heat Index: 46°   Visibility: 10mi
Dew Point: 40°   Wind: 6mph
Humidity: 79%   Direction: 250°WSW
Pressure: 29.58"   Gusts: NA
Location:  41.79°N, 74.23°W
Report Text: KMGJ 260854Z AUTO 25005KT 10SM CLR 08/04 A2958 RMK AO2 SLP017 60002 T00780044 51018 TSNO
Loading
Personal Weather Stations






























Interactive Weather Map
Tropical Storm Tracking
New forecast layout! Learn more

10-Day Weather Forecast

Advertisements
Track Severe Weather on mobile